sensor_id;sensor_type;location;lat;lon;timestamp;P1;durP1;ratioP1;P2;durP2;ratioP2
7841;SDS011;3966;51.052;13.820;2022-11-04T00:01:21;11.73;;;6.40;;
7841;SDS011;3966;51.052;13.820;2022-11-04T00:03:46;11.10;;;5.47;;
7841;SDS011;3966;51.052;13.820;2022-11-04T00:06:12;12.15;;;6.60;;
7841;SDS011;3966;51.052;13.820;2022-11-04T00:08:37;15.32;;;7.13;;
7841;SDS011;3966;51.052;13.820;2022-11-04T00:11:03;16.95;;;7.10;;
7841;SDS011;3966;51.052;13.820;2022-11-04T00:13:47;15.02;;;7.20;;
7841;SDS011;3966;51.052;13.820;2022-11-04T00:16:13;12.25;;;6.75;;
7841;SDS011;3966;51.052;13.820;2022-11-04T00:19:01;13.05;;;7.13;;
7841;SDS011;3966;51.052;13.820;2022-11-04T00:21:27;18.23;;;7.18;;
7841;SDS011;3966;51.052;13.820;2022-11-04T00:24:12;13.18;;;7.00;;
7841;SDS011;3966;51.052;13.820;2022-11-04T00:26:56;16.27;;;6.80;;
7841;SDS011;3966;51.052;13.820;2022-11-04T00:29:41;13.13;;;7.38;;
7841;SDS011;3966;51.052;13.820;2022-11-04T00:32:07;14.10;;;7.22;;
7841;SDS011;3966;51.052;13.820;2022-11-04T00:34:52;14.93;;;8.07;;
7841;SDS011;3966;51.052;13.820;2022-11-04T00:37:17;19.58;;;7.57;;
7841;SDS011;3966;51.052;13.820;2022-11-04T00:39:43;18.52;;;7.40;;
7841;SDS011;3966;51.052;13.820;2022-11-04T00:42:09;14.25;;;7.82;;
7841;SDS011;3966;51.052;13.820;2022-11-04T00:44:34;19.02;;;8.30;;
7841;SDS011;3966;51.052;13.820;2022-11-04T00:47:00;20.33;;;8.40;;
7841;SDS011;3966;51.052;13.820;2022-11-04T00:49:25;21.48;;;8.98;;
7841;SDS011;3966;51.052;13.820;2022-11-04T00:51:51;17.35;;;8.35;;
7841;SDS011;3966;51.052;13.820;2022-11-04T00:54:16;18.73;;;8.77;;
7841;SDS011;3966;51.052;13.820;2022-11-04T00:56:42;17.92;;;8.70;;
7841;SDS011;3966;51.052;13.820;2022-11-04T00:59:07;22.20;;;8.82;;
7841;SDS011;3966;51.052;13.820;2022-11-04T01:01:34;17.13;;;9.32;;
7841;SDS011;3966;51.052;13.820;2022-11-04T01:03:59;16.83;;;9.00;;
7841;SDS011;3966;51.052;13.820;2022-11-04T01:06:25;14.43;;;8.85;;
7841;SDS011;3966;51.052;13.820;2022-11-04T01:08:55;19.35;;;8.95;;
7841;SDS011;3966;51.052;13.820;2022-11-04T01:11:21;16.50;;;9.48;;
7841;SDS011;3966;51.052;13.820;2022-11-04T01:13:51;17.02;;;8.65;;
7841;SDS011;3966;51.052;13.820;2022-11-04T01:16:17;20.58;;;9.80;;
7841;SDS011;3966;51.052;13.820;2022-11-04T01:18:42;20.45;;;10.25;;
7841;SDS011;3966;51.052;13.820;2022-11-04T01:21:10;18.75;;;10.27;;
7841;SDS011;3966;51.052;13.820;2022-11-04T01:23:37;25.00;;;10.88;;
7841;SDS011;3966;51.052;13.820;2022-11-04T01:26:05;19.48;;;11.35;;
7841;SDS011;3966;51.052;13.820;2022-11-04T01:28:35;25.27;;;11.45;;
7841;SDS011;3966;51.052;13.820;2022-11-04T01:31:34;26.67;;;12.02;;
7841;SDS011;3966;51.052;13.820;2022-11-04T01:33:54;24.70;;;12.18;;
7841;SDS011;3966;51.052;13.820;2022-11-04T01:36:21;21.33;;;11.38;;
7841;SDS011;3966;51.052;13.820;2022-11-04T01:38:47;20.17;;;11.60;;
7841;SDS011;3966;51.052;13.820;2022-11-04T01:41:19;21.27;;;11.18;;
7841;SDS011;3966;51.052;13.820;2022-11-04T01:43:53;25.63;;;11.63;;
7841;SDS011;3966;51.052;13.820;2022-11-04T01:46:23;22.98;;;12.38;;
7841;SDS011;3966;51.052;13.820;2022-11-04T01:48:53;26.73;;;12.10;;
7841;SDS011;3966;51.052;13.820;2022-11-04T01:51:23;26.05;;;12.10;;
7841;SDS011;3966;51.052;13.820;2022-11-04T01:53:49;26.33;;;12.18;;
7841;SDS011;3966;51.052;13.820;2022-11-04T01:56:19;23.55;;;12.98;;
7841;SDS011;3966;51.052;13.820;2022-11-04T01:58:46;23.48;;;12.77;;
7841;SDS011;3966;51.052;13.820;2022-11-04T02:01:15;26.52;;;12.45;;
7841;SDS011;3966;51.052;13.820;2022-11-04T02:06:09;25.00;;;13.05;;
7841;SDS011;3966;51.052;13.820;2022-11-04T02:08:35;26.63;;;12.77;;
7841;SDS011;3966;51.052;13.820;2022-11-04T02:11:03;26.23;;;13.02;;
7841;SDS011;3966;51.052;13.820;2022-11-04T02:13:29;27.05;;;12.77;;
7841;SDS011;3966;51.052;13.820;2022-11-04T02:16:06;25.27;;;12.35;;
7841;SDS011;3966;51.052;13.820;2022-11-04T02:19:00;29.30;;;13.32;;
7841;SDS011;3966;51.052;13.820;2022-11-04T02:21:52;25.20;;;13.52;;
7841;SDS011;3966;51.052;13.820;2022-11-04T02:24:55;26.98;;;13.20;;
7841;SDS011;3966;51.052;13.820;2022-11-04T02:30:20;29.33;;;14.57;;
7841;SDS011;3966;51.052;13.820;2022-11-04T02:33:04;30.95;;;13.75;;
7841;SDS011;3966;51.052;13.820;2022-11-04T02:35:49;23.48;;;13.27;;
7841;SDS011;3966;51.052;13.820;2022-11-04T02:38:39;25.15;;;13.48;;
7841;SDS011;3966;51.052;13.820;2022-11-04T02:46:57;36.78;;;14.52;;
7841;SDS011;3966;51.052;13.820;2022-11-04T02:49:33;29.02;;;14.63;;
7841;SDS011;3966;51.052;13.820;2022-11-04T02:52:20;28.02;;;13.48;;
7841;SDS011;3966;51.052;13.820;2022-11-04T02:54:55;28.92;;;13.68;;
7841;SDS011;3966;51.052;13.820;2022-11-04T02:57:29;29.98;;;14.70;;
7841;SDS011;3966;51.052;13.820;2022-11-04T03:00:00;35.30;;;15.40;;
7841;SDS011;3966;51.052;13.820;2022-11-04T03:02:50;38.40;;;15.45;;
7841;SDS011;3966;51.052;13.820;2022-11-04T03:05:37;30.50;;;14.32;;
7841;SDS011;3966;51.052;13.820;2022-11-04T03:08:07;37.05;;;16.75;;
7841;SDS011;3966;51.052;13.820;2022-11-04T03:10:42;30.60;;;14.43;;
7841;SDS011;3966;51.052;13.820;2022-11-04T03:13:13;29.25;;;15.38;;
7841;SDS011;3966;51.052;13.820;2022-11-04T03:16:04;34.83;;;15.20;;
7841;SDS011;3966;51.052;13.820;2022-11-04T03:21:21;29.40;;;14.95;;
7841;SDS011;3966;51.052;13.820;2022-11-04T03:23:50;34.08;;;14.85;;
7841;SDS011;3966;51.052;13.820;2022-11-04T03:26:28;29.08;;;13.48;;
7841;SDS011;3966;51.052;13.820;2022-11-04T03:29:04;29.60;;;15.00;;
7841;SDS011;3966;51.052;13.820;2022-11-04T03:32:21;34.30;;;15.00;;
7841;SDS011;3966;51.052;13.820;2022-11-04T03:34:30;35.53;;;14.38;;
7841;SDS011;3966;51.052;13.820;2022-11-04T03:36:56;32.40;;;14.93;;
7841;SDS011;3966;51.052;13.820;2022-11-04T03:39:22;29.98;;;14.13;;
7841;SDS011;3966;51.052;13.820;2022-11-04T03:41:49;34.17;;;15.68;;
7841;SDS011;3966;51.052;13.820;2022-11-04T03:44:19;30.70;;;14.57;;
7841;SDS011;3966;51.052;13.820;2022-11-04T03:46:45;30.90;;;15.07;;
7841;SDS011;3966;51.052;13.820;2022-11-04T03:49:11;26.77;;;14.60;;
7841;SDS011;3966;51.052;13.820;2022-11-04T03:51:37;29.25;;;14.85;;
7841;SDS011;3966;51.052;13.820;2022-11-04T03:54:03;30.50;;;14.65;;
7841;SDS011;3966;51.052;13.820;2022-11-04T03:59:48;32.53;;;16.58;;
7841;SDS011;3966;51.052;13.820;2022-11-04T04:02:22;33.28;;;15.20;;
7841;SDS011;3966;51.052;13.820;2022-11-04T04:07:47;29.42;;;14.43;;
7841;SDS011;3966;51.052;13.820;2022-11-04T04:10:29;36.47;;;16.45;;
7841;SDS011;3966;51.052;13.820;2022-11-04T04:13:06;34.35;;;15.70;;
7841;SDS011;3966;51.052;13.820;2022-11-04T04:15:56;33.28;;;15.32;;
7841;SDS011;3966;51.052;13.820;2022-11-04T04:18:39;34.13;;;14.88;;
7841;SDS011;3966;51.052;13.820;2022-11-04T04:21:08;27.83;;;14.95;;
7841;SDS011;3966;51.052;13.820;2022-11-04T04:23:39;30.52;;;14.85;;
7841;SDS011;3966;51.052;13.820;2022-11-04T04:26:25;29.88;;;15.05;;
7841;SDS011;3966;51.052;13.820;2022-11-04T04:29:11;31.60;;;15.73;;
7841;SDS011;3966;51.052;13.820;2022-11-04T04:31:38;30.40;;;15.82;;
7841;SDS011;3966;51.052;13.820;2022-11-04T04:34:14;29.33;;;14.98;;
7841;SDS011;3966;51.052;13.820;2022-11-04T04:37:19;29.92;;;15.40;;
7841;SDS011;3966;51.052;13.820;2022-11-04T04:39:47;33.67;;;15.05;;
7841;SDS011;3966;51.052;13.820;2022-11-04T04:42:36;33.22;;;15.88;;
7841;SDS011;3966;51.052;13.820;2022-11-04T04:45:30;34.55;;;17.25;;
7841;SDS011;3966;51.052;13.820;2022-11-04T04:47:58;36.75;;;17.10;;
7841;SDS011;3966;51.052;13.820;2022-11-04T04:50:25;35.88;;;16.17;;
7841;SDS011;3966;51.052;13.820;2022-11-04T04:52:53;33.78;;;16.88;;
7841;SDS011;3966;51.052;13.820;2022-11-04T04:55:22;33.83;;;17.80;;
7841;SDS011;3966;51.052;13.820;2022-11-04T04:57:47;34.28;;;17.95;;
7841;SDS011;3966;51.052;13.820;2022-11-04T05:00:14;34.65;;;18.05;;
7841;SDS011;3966;51.052;13.820;2022-11-04T05:02:41;42.65;;;20.45;;
7841;SDS011;3966;51.052;13.820;2022-11-04T05:05:07;38.30;;;20.13;;
7841;SDS011;3966;51.052;13.820;2022-11-04T05:07:33;43.97;;;20.58;;
7841;SDS011;3966;51.052;13.820;2022-11-04T05:09:59;43.70;;;20.33;;
7841;SDS011;3966;51.052;13.820;2022-11-04T05:12:24;46.63;;;21.45;;
7841;SDS011;3966;51.052;13.820;2022-11-04T05:14:50;39.00;;;20.75;;
7841;SDS011;3966;51.052;13.820;2022-11-04T05:17:15;49.78;;;21.58;;
7841;SDS011;3966;51.052;13.820;2022-11-04T05:19:41;45.50;;;23.30;;
7841;SDS011;3966;51.052;13.820;2022-11-04T05:22:07;50.25;;;22.38;;
7841;SDS011;3966;51.052;13.820;2022-11-04T05:24:32;45.88;;;22.25;;
7841;SDS011;3966;51.052;13.820;2022-11-04T05:26:58;53.38;;;23.67;;
7841;SDS011;3966;51.052;13.820;2022-11-04T05:29:23;44.70;;;22.70;;
7841;SDS011;3966;51.052;13.820;2022-11-04T05:31:49;46.63;;;23.90;;
7841;SDS011;3966;51.052;13.820;2022-11-04T05:34:14;45.08;;;23.23;;
7841;SDS011;3966;51.052;13.820;2022-11-04T05:36:40;56.25;;;24.45;;
7841;SDS011;3966;51.052;13.820;2022-11-04T05:39:06;51.63;;;23.70;;
7841;SDS011;3966;51.052;13.820;2022-11-04T05:41:34;45.75;;;22.38;;
7841;SDS011;3966;51.052;13.820;2022-11-04T05:44:00;48.25;;;24.65;;
7841;SDS011;3966;51.052;13.820;2022-11-04T05:46:27;51.55;;;24.77;;
7841;SDS011;3966;51.052;13.820;2022-11-04T05:48:53;48.38;;;23.80;;
7841;SDS011;3966;51.052;13.820;2022-11-04T05:51:20;52.95;;;26.58;;
7841;SDS011;3966;51.052;13.820;2022-11-04T05:53:48;55.60;;;26.48;;
7841;SDS011;3966;51.052;13.820;2022-11-04T05:56:13;38.80;;;18.33;;
7841;SDS011;3966;51.052;13.820;2022-11-04T05:58:39;36.97;;;17.75;;
7841;SDS011;3966;51.052;13.820;2022-11-04T06:01:22;43.90;;;21.25;;
7841;SDS011;3966;51.052;13.820;2022-11-04T06:03:54;41.88;;;20.23;;
7841;SDS011;3966;51.052;13.820;2022-11-04T06:06:21;44.72;;;20.58;;
7841;SDS011;3966;51.052;13.820;2022-11-04T06:08:48;45.90;;;22.65;;
7841;SDS011;3966;51.052;13.820;2022-11-04T06:11:15;47.88;;;24.10;;
7841;SDS011;3966;51.052;13.820;2022-11-04T06:13:41;49.08;;;23.48;;
7841;SDS011;3966;51.052;13.820;2022-11-04T06:16:07;46.60;;;23.13;;
7841;SDS011;3966;51.052;13.820;2022-11-04T06:18:33;60.22;;;27.38;;
7841;SDS011;3966;51.052;13.820;2022-11-04T06:23:42;55.20;;;25.60;;
7841;SDS011;3966;51.052;13.820;2022-11-04T06:26:08;54.72;;;26.90;;
7841;SDS011;3966;51.052;13.820;2022-11-04T06:28:36;44.08;;;23.77;;
7841;SDS011;3966;51.052;13.820;2022-11-04T06:31:02;62.67;;;29.60;;
7841;SDS011;3966;51.052;13.820;2022-11-04T06:33:29;53.65;;;26.63;;
7841;SDS011;3966;51.052;13.820;2022-11-04T06:35:56;50.00;;;25.42;;
7841;SDS011;3966;51.052;13.820;2022-11-04T06:38:21;48.35;;;23.88;;
7841;SDS011;3966;51.052;13.820;2022-11-04T06:40:47;60.17;;;25.23;;
7841;SDS011;3966;51.052;13.820;2022-11-04T06:43:13;46.72;;;23.20;;
7841;SDS011;3966;51.052;13.820;2022-11-04T06:45:38;47.85;;;22.52;;
7841;SDS011;3966;51.052;13.820;2022-11-04T06:48:04;47.67;;;21.73;;
7841;SDS011;3966;51.052;13.820;2022-11-04T06:50:29;52.45;;;23.67;;
7841;SDS011;3966;51.052;13.820;2022-11-04T06:52:55;38.25;;;19.75;;
7841;SDS011;3966;51.052;13.820;2022-11-04T06:55:21;42.92;;;19.20;;
7841;SDS011;3966;51.052;13.820;2022-11-04T06:57:46;43.53;;;21.85;;
7841;SDS011;3966;51.052;13.820;2022-11-04T07:00:12;34.25;;;17.42;;
7841;SDS011;3966;51.052;13.820;2022-11-04T07:02:38;40.95;;;19.17;;
7841;SDS011;3966;51.052;13.820;2022-11-04T07:05:03;34.60;;;17.17;;
7841;SDS011;3966;51.052;13.820;2022-11-04T07:07:29;35.38;;;18.50;;
7841;SDS011;3966;51.052;13.820;2022-11-04T07:09:55;40.50;;;19.50;;
7841;SDS011;3966;51.052;13.820;2022-11-04T07:12:21;33.72;;;16.75;;
7841;SDS011;3966;51.052;13.820;2022-11-04T07:14:48;32.72;;;16.63;;
7841;SDS011;3966;51.052;13.820;2022-11-04T07:17:15;30.38;;;14.85;;
7841;SDS011;3966;51.052;13.820;2022-11-04T07:19:40;31.80;;;15.82;;
7841;SDS011;3966;51.052;13.820;2022-11-04T07:22:06;33.33;;;15.88;;
7841;SDS011;3966;51.052;13.820;2022-11-04T07:24:32;28.75;;;14.52;;
7841;SDS011;3966;51.052;13.820;2022-11-04T07:26:58;29.05;;;13.90;;
7841;SDS011;3966;51.052;13.820;2022-11-04T07:29:24;27.95;;;13.93;;
7841;SDS011;3966;51.052;13.820;2022-11-04T07:31:49;29.42;;;14.10;;
7841;SDS011;3966;51.052;13.820;2022-11-04T07:34:15;25.27;;;13.85;;
7841;SDS011;3966;51.052;13.820;2022-11-04T07:36:41;29.98;;;12.77;;
7841;SDS011;3966;51.052;13.820;2022-11-04T07:39:06;24.63;;;12.00;;
7841;SDS011;3966;51.052;13.820;2022-11-04T07:41:32;24.98;;;11.48;;
7841;SDS011;3966;51.052;13.820;2022-11-04T07:43:58;22.42;;;10.68;;
7841;SDS011;3966;51.052;13.820;2022-11-04T07:46:25;22.48;;;11.38;;
7841;SDS011;3966;51.052;13.820;2022-11-04T07:48:50;20.90;;;10.57;;
7841;SDS011;3966;51.052;13.820;2022-11-04T07:51:17;19.70;;;10.32;;
7841;SDS011;3966;51.052;13.820;2022-11-04T07:53:44;19.08;;;9.90;;
7841;SDS011;3966;51.052;13.820;2022-11-04T07:56:11;21.48;;;10.57;;
7841;SDS011;3966;51.052;13.820;2022-11-04T07:58:37;16.88;;;10.00;;
7841;SDS011;3966;51.052;13.820;2022-11-04T08:01:11;18.77;;;9.65;;
7841;SDS011;3966;51.052;13.820;2022-11-04T08:03:39;19.92;;;9.32;;
7841;SDS011;3966;51.052;13.820;2022-11-04T08:06:05;17.80;;;9.50;;
7841;SDS011;3966;51.052;13.820;2022-11-04T08:08:32;18.35;;;9.43;;
7841;SDS011;3966;51.052;13.820;2022-11-04T08:10:59;17.35;;;9.43;;
7841;SDS011;3966;51.052;13.820;2022-11-04T08:13:28;20.13;;;9.27;;
7841;SDS011;3966;51.052;13.820;2022-11-04T08:15:54;21.50;;;9.35;;
7841;SDS011;3966;51.052;13.820;2022-11-04T08:18:20;17.30;;;9.00;;
7841;SDS011;3966;51.052;13.820;2022-11-04T08:20:49;17.67;;;8.32;;
7841;SDS011;3966;51.052;13.820;2022-11-04T08:23:16;19.20;;;9.30;;
7841;SDS011;3966;51.052;13.820;2022-11-04T08:25:43;19.45;;;9.55;;
7841;SDS011;3966;51.052;13.820;2022-11-04T08:28:09;18.27;;;9.07;;
7841;SDS011;3966;51.052;13.820;2022-11-04T08:30:50;22.80;;;9.85;;
7841;SDS011;3966;51.052;13.820;2022-11-04T08:33:27;15.65;;;8.82;;
7841;SDS011;3966;51.052;13.820;2022-11-04T08:35:54;16.05;;;8.80;;
7841;SDS011;3966;51.052;13.820;2022-11-04T08:38:22;16.50;;;8.40;;
7841;SDS011;3966;51.052;13.820;2022-11-04T08:40:48;16.17;;;8.35;;
7841;SDS011;3966;51.052;13.820;2022-11-04T08:43:13;14.57;;;8.32;;
7841;SDS011;3966;51.052;13.820;2022-11-04T08:45:43;17.83;;;9.65;;
7841;SDS011;3966;51.052;13.820;2022-11-04T08:48:10;16.65;;;8.57;;
7841;SDS011;3966;51.052;13.820;2022-11-04T08:50:37;16.58;;;8.38;;
7841;SDS011;3966;51.052;13.820;2022-11-04T08:53:03;17.77;;;8.77;;
7841;SDS011;3966;51.052;13.820;2022-11-04T08:55:29;14.45;;;8.43;;
7841;SDS011;3966;51.052;13.820;2022-11-04T08:57:55;15.18;;;8.70;;
7841;SDS011;3966;51.052;13.820;2022-11-04T09:00:21;14.50;;;7.72;;
7841;SDS011;3966;51.052;13.820;2022-11-04T09:02:47;17.40;;;8.13;;
7841;SDS011;3966;51.052;13.820;2022-11-04T09:05:13;17.13;;;9.00;;
7841;SDS011;3966;51.052;13.820;2022-11-04T09:07:39;13.82;;;6.90;;
7841;SDS011;3966;51.052;13.820;2022-11-04T09:10:05;14.30;;;7.95;;
7841;SDS011;3966;51.052;13.820;2022-11-04T09:12:31;12.98;;;7.97;;
7841;SDS011;3966;51.052;13.820;2022-11-04T09:14:57;15.18;;;7.85;;
7841;SDS011;3966;51.052;13.820;2022-11-04T09:17:23;16.55;;;6.50;;
7841;SDS011;3966;51.052;13.820;2022-11-04T09:19:49;13.43;;;7.43;;
7841;SDS011;3966;51.052;13.820;2022-11-04T09:22:14;11.23;;;6.30;;
7841;SDS011;3966;51.052;13.820;2022-11-04T09:24:40;13.95;;;6.75;;
7841;SDS011;3966;51.052;13.820;2022-11-04T09:27:06;12.70;;;6.50;;
7841;SDS011;3966;51.052;13.820;2022-11-04T09:29:31;15.43;;;6.07;;
7841;SDS011;3966;51.052;13.820;2022-11-04T09:31:58;12.73;;;6.78;;
7841;SDS011;3966;51.052;13.820;2022-11-04T09:34:24;14.00;;;6.50;;
7841;SDS011;3966;51.052;13.820;2022-11-04T09:36:53;11.75;;;6.60;;
7841;SDS011;3966;51.052;13.820;2022-11-04T09:39:19;8.45;;;5.60;;
7841;SDS011;3966;51.052;13.820;2022-11-04T09:44:52;12.90;;;7.25;;
7841;SDS011;3966;51.052;13.820;2022-11-04T09:47:30;10.38;;;5.93;;
7841;SDS011;3966;51.052;13.820;2022-11-04T09:49:58;13.23;;;6.88;;
7841;SDS011;3966;51.052;13.820;2022-11-04T09:52:33;12.15;;;6.05;;
7841;SDS011;3966;51.052;13.820;2022-11-04T09:57:39;13.38;;;6.75;;
7841;SDS011;3966;51.052;13.820;2022-11-04T10:00:05;11.25;;;5.75;;
7841;SDS011;3966;51.052;13.820;2022-11-04T10:02:53;12.88;;;6.47;;
7841;SDS011;3966;51.052;13.820;2022-11-04T10:08:27;12.48;;;6.30;;
7841;SDS011;3966;51.052;13.820;2022-11-04T10:11:08;12.02;;;5.43;;
7841;SDS011;3966;51.052;13.820;2022-11-04T10:21:38;6.32;;;4.50;;
7841;SDS011;3966;51.052;13.820;2022-11-04T10:27:20;11.63;;;5.18;;
7841;SDS011;3966;51.052;13.820;2022-11-04T10:30:13;9.15;;;4.90;;
7841;SDS011;3966;51.052;13.820;2022-11-04T10:35:41;10.88;;;5.38;;
7841;SDS011;3966;51.052;13.820;2022-11-04T10:38:16;10.90;;;5.97;;
7841;SDS011;3966;51.052;13.820;2022-11-04T10:40:46;8.73;;;5.00;;
7841;SDS011;3966;51.052;13.820;2022-11-04T10:43:30;7.35;;;5.07;;
7841;SDS011;3966;51.052;13.820;2022-11-04T10:46:10;8.27;;;5.25;;
7841;SDS011;3966;51.052;13.820;2022-11-04T10:48:59;11.43;;;4.68;;
7841;SDS011;3966;51.052;13.820;2022-11-04T10:51:48;8.73;;;5.40;;
7841;SDS011;3966;51.052;13.820;2022-11-04T10:54:14;11.75;;;4.72;;
7841;SDS011;3966;51.052;13.820;2022-11-04T10:56:44;6.55;;;4.00;;
7841;SDS011;3966;51.052;13.820;2022-11-04T10:59:21;10.07;;;4.15;;
7841;SDS011;3966;51.052;13.820;2022-11-04T11:01:53;8.10;;;4.10;;
7841;SDS011;3966;51.052;13.820;2022-11-04T11:06:51;9.77;;;4.47;;
7841;SDS011;3966;51.052;13.820;2022-11-04T11:09:29;7.47;;;4.13;;
7841;SDS011;3966;51.052;13.820;2022-11-04T11:12:00;7.00;;;3.40;;
7841;SDS011;3966;51.052;13.820;2022-11-04T11:14:32;10.07;;;4.57;;
7841;SDS011;3966;51.052;13.820;2022-11-04T11:19:58;8.98;;;4.13;;
7841;SDS011;3966;51.052;13.820;2022-11-04T11:22:38;7.47;;;4.95;;
7841;SDS011;3966;51.052;13.820;2022-11-04T11:27:37;6.78;;;3.55;;
7841;SDS011;3966;51.052;13.820;2022-11-04T11:30:03;9.15;;;3.72;;
7841;SDS011;3966;51.052;13.820;2022-11-04T11:32:33;6.90;;;3.92;;
7841;SDS011;3966;51.052;13.820;2022-11-04T11:35:13;8.30;;;4.22;;
7841;SDS011;3966;51.052;13.820;2022-11-04T11:37:43;7.95;;;3.85;;
7841;SDS011;3966;51.052;13.820;2022-11-04T11:40:24;11.20;;;5.40;;
7841;SDS011;3966;51.052;13.820;2022-11-04T11:42:56;7.93;;;4.57;;
7841;SDS011;3966;51.052;13.820;2022-11-04T11:45:23;8.65;;;4.07;;
7841;SDS011;3966;51.052;13.820;2022-11-04T11:47:50;8.85;;;4.50;;
7841;SDS011;3966;51.052;13.820;2022-11-04T11:50:26;6.50;;;4.47;;
7841;SDS011;3966;51.052;13.820;2022-11-04T11:53:17;8.02;;;4.13;;
7841;SDS011;3966;51.052;13.820;2022-11-04T11:55:47;8.90;;;4.95;;
7841;SDS011;3966;51.052;13.820;2022-11-04T12:01:07;6.55;;;4.43;;
7841;SDS011;3966;51.052;13.820;2022-11-04T12:03:47;6.78;;;4.80;;
7841;SDS011;3966;51.052;13.820;2022-11-04T12:11:35;7.13;;;4.25;;
7841;SDS011;3966;51.052;13.820;2022-11-04T12:14:20;9.43;;;5.43;;
7841;SDS011;3966;51.052;13.820;2022-11-04T12:23:41;7.88;;;4.53;;
7841;SDS011;3966;51.052;13.820;2022-11-04T12:25:49;12.27;;;5.38;;
7841;SDS011;3966;51.052;13.820;2022-11-04T12:34:01;13.70;;;4.90;;
7841;SDS011;3966;51.052;13.820;2022-11-04T12:36:44;7.63;;;5.55;;
7841;SDS011;3966;51.052;13.820;2022-11-04T12:39:21;6.25;;;4.28;;
7841;SDS011;3966;51.052;13.820;2022-11-04T12:42:08;6.28;;;3.75;;
7841;SDS011;3966;51.052;13.820;2022-11-04T12:44:47;9.55;;;3.83;;
7841;SDS011;3966;51.052;13.820;2022-11-04T12:47:39;3.42;;;2.88;;
7841;SDS011;3966;51.052;13.820;2022-11-04T12:52:49;3.40;;;2.83;;
7841;SDS011;3966;51.052;13.820;2022-11-04T12:55:33;9.75;;;3.13;;
7841;SDS011;3966;51.052;13.820;2022-11-04T12:58:09;5.50;;;3.60;;
7841;SDS011;3966;51.052;13.820;2022-11-04T13:01:17;6.28;;;3.75;;
7841;SDS011;3966;51.052;13.820;2022-11-04T13:04:02;8.82;;;3.13;;
7841;SDS011;3966;51.052;13.820;2022-11-04T13:06:40;15.32;;;4.45;;
7841;SDS011;3966;51.052;13.820;2022-11-04T13:09:44;6.50;;;4.70;;
7841;SDS011;3966;51.052;13.820;2022-11-04T13:15:04;11.85;;;6.03;;
7841;SDS011;3966;51.052;13.820;2022-11-04T13:17:43;9.00;;;5.00;;
7841;SDS011;3966;51.052;13.820;2022-11-04T13:22:43;13.48;;;5.97;;
7841;SDS011;3966;51.052;13.820;2022-11-04T13:25:13;16.00;;;5.35;;
7841;SDS011;3966;51.052;13.820;2022-11-04T13:28:00;17.83;;;5.60;;
7841;SDS011;3966;51.052;13.820;2022-11-04T13:30:39;14.20;;;5.00;;
7841;SDS011;3966;51.052;13.820;2022-11-04T13:38:28;7.68;;;4.20;;
7841;SDS011;3966;51.052;13.820;2022-11-04T13:43:55;13.82;;;4.95;;
7841;SDS011;3966;51.052;13.820;2022-11-04T13:46:27;9.63;;;4.70;;
7841;SDS011;3966;51.052;13.820;2022-11-04T13:49:05;8.13;;;4.13;;
7841;SDS011;3966;51.052;13.820;2022-11-04T13:51:59;7.22;;;4.30;;
7841;SDS011;3966;51.052;13.820;2022-11-04T13:54:54;6.93;;;3.97;;
7841;SDS011;3966;51.052;13.820;2022-11-04T13:57:26;5.95;;;4.25;;
7841;SDS011;3966;51.052;13.820;2022-11-04T14:00:16;11.05;;;4.45;;
7841;SDS011;3966;51.052;13.820;2022-11-04T14:02:45;6.22;;;4.43;;
7841;SDS011;3966;51.052;13.820;2022-11-04T14:10:44;10.48;;;4.68;;
7841;SDS011;3966;51.052;13.820;2022-11-04T14:16:03;6.57;;;3.35;;
7841;SDS011;3966;51.052;13.820;2022-11-04T14:18:48;7.43;;;3.35;;
7841;SDS011;3966;51.052;13.820;2022-11-04T14:21:16;14.18;;;4.32;;
7841;SDS011;3966;51.052;13.820;2022-11-04T14:23:45;12.63;;;4.32;;
7841;SDS011;3966;51.052;13.820;2022-11-04T14:26:16;16.67;;;5.80;;
7841;SDS011;3966;51.052;13.820;2022-11-04T14:28:48;11.63;;;4.75;;
7841;SDS011;3966;51.052;13.820;2022-11-04T14:31:34;8.30;;;3.58;;
7841;SDS011;3966;51.052;13.820;2022-11-04T14:34:02;9.30;;;4.68;;
7841;SDS011;3966;51.052;13.820;2022-11-04T14:36:30;8.05;;;3.47;;
7841;SDS011;3966;51.052;13.820;2022-11-04T14:39:30;7.07;;;3.75;;
7841;SDS011;3966;51.052;13.820;2022-11-04T14:41:53;6.25;;;4.03;;
7841;SDS011;3966;51.052;13.820;2022-11-04T14:47:05;10.27;;;4.88;;
7841;SDS011;3966;51.052;13.820;2022-11-04T14:49:49;9.50;;;5.28;;
7841;SDS011;3966;51.052;13.820;2022-11-04T14:52:19;12.40;;;5.40;;
7841;SDS011;3966;51.052;13.820;2022-11-04T14:54:54;12.85;;;5.07;;
7841;SDS011;3966;51.052;13.820;2022-11-04T14:57:22;7.57;;;4.85;;
7841;SDS011;3966;51.052;13.820;2022-11-04T14:59:48;8.68;;;4.95;;
7841;SDS011;3966;51.052;13.820;2022-11-04T15:02:27;5.85;;;4.40;;
7841;SDS011;3966;51.052;13.820;2022-11-04T15:04:56;8.98;;;4.90;;
7841;SDS011;3966;51.052;13.820;2022-11-04T15:07:34;11.93;;;4.93;;
7841;SDS011;3966;51.052;13.820;2022-11-04T15:10:13;9.18;;;5.45;;
7841;SDS011;3966;51.052;13.820;2022-11-04T15:12:48;8.35;;;4.88;;
7841;SDS011;3966;51.052;13.820;2022-11-04T15:15:56;5.78;;;3.58;;
7841;SDS011;3966;51.052;13.820;2022-11-04T15:18:14;6.43;;;4.65;;
7841;SDS011;3966;51.052;13.820;2022-11-04T15:20:49;6.95;;;4.68;;
7841;SDS011;3966;51.052;13.820;2022-11-04T15:23:28;9.60;;;5.65;;
7841;SDS011;3966;51.052;13.820;2022-11-04T15:25:56;10.20;;;4.82;;
7841;SDS011;3966;51.052;13.820;2022-11-04T15:28:27;9.85;;;5.72;;
7841;SDS011;3966;51.052;13.820;2022-11-04T15:33:42;6.50;;;4.90;;
7841;SDS011;3966;51.052;13.820;2022-11-04T15:36:32;10.80;;;6.25;;
7841;SDS011;3966;51.052;13.820;2022-11-04T15:41:43;10.70;;;5.95;;
7841;SDS011;3966;51.052;13.820;2022-11-04T15:44:29;9.18;;;5.88;;
7841;SDS011;3966;51.052;13.820;2022-11-04T15:46:57;11.88;;;6.43;;
7841;SDS011;3966;51.052;13.820;2022-11-04T15:49:25;9.80;;;5.60;;
7841;SDS011;3966;51.052;13.820;2022-11-04T15:51:58;10.35;;;4.88;;
7841;SDS011;3966;51.052;13.820;2022-11-04T15:54:40;13.27;;;5.20;;
7841;SDS011;3966;51.052;13.820;2022-11-04T16:02:52;7.88;;;5.07;;
7841;SDS011;3966;51.052;13.820;2022-11-04T16:07:53;12.02;;;6.40;;
7841;SDS011;3966;51.052;13.820;2022-11-04T16:10:40;13.85;;;7.38;;
7841;SDS011;3966;51.052;13.820;2022-11-04T16:18:25;12.05;;;6.07;;
7841;SDS011;3966;51.052;13.820;2022-11-04T16:23:45;8.57;;;5.10;;
7841;SDS011;3966;51.052;13.820;2022-11-04T16:26:14;9.38;;;4.93;;
7841;SDS011;3966;51.052;13.820;2022-11-04T16:28:39;9.25;;;4.93;;
7841;SDS011;3966;51.052;13.820;2022-11-04T16:31:22;6.28;;;4.28;;
7841;SDS011;3966;51.052;13.820;2022-11-04T16:33:50;7.03;;;4.53;;
7841;SDS011;3966;51.052;13.820;2022-11-04T16:36:15;7.63;;;4.35;;
7841;SDS011;3966;51.052;13.820;2022-11-04T16:41:25;5.35;;;4.20;;
7841;SDS011;3966;51.052;13.820;2022-11-04T16:43:53;4.53;;;3.42;;
7841;SDS011;3966;51.052;13.820;2022-11-04T16:46:19;7.70;;;4.18;;
7841;SDS011;3966;51.052;13.820;2022-11-04T16:48:46;6.47;;;3.95;;
7841;SDS011;3966;51.052;13.820;2022-11-04T16:51:16;5.90;;;3.60;;
7841;SDS011;3966;51.052;13.820;2022-11-04T16:53:47;7.70;;;4.45;;
7841;SDS011;3966;51.052;13.820;2022-11-04T16:56:19;6.32;;;3.90;;
7841;SDS011;3966;51.052;13.820;2022-11-04T16:58:47;12.90;;;5.47;;
7841;SDS011;3966;51.052;13.820;2022-11-04T17:01:13;6.22;;;4.22;;
7841;SDS011;3966;51.052;13.820;2022-11-04T17:03:39;8.63;;;5.38;;
7841;SDS011;3966;51.052;13.820;2022-11-04T17:06:07;8.63;;;4.72;;
7841;SDS011;3966;51.052;13.820;2022-11-04T17:08:34;9.65;;;5.00;;
7841;SDS011;3966;51.052;13.820;2022-11-04T17:10:59;13.35;;;6.07;;
7841;SDS011;3966;51.052;13.820;2022-11-04T17:13:25;9.25;;;4.93;;
7841;SDS011;3966;51.052;13.820;2022-11-04T17:15:51;9.55;;;6.50;;
7841;SDS011;3966;51.052;13.820;2022-11-04T17:18:17;10.15;;;6.53;;